createdAt,value
2023-04-16T00:01:46.618Z,70.88
2023-04-16T00:04:15.012Z,69.89
2023-04-16T00:06:43.227Z,69.83
2023-04-16T00:09:11.667Z,70.56
2023-04-16T00:11:39.782Z,71.52
2023-04-16T00:14:07.790Z,71.89
2023-04-16T00:16:35.807Z,71.90
2023-04-16T00:19:03.996Z,71.06
2023-04-16T00:21:32.378Z,71.57
2023-04-16T00:24:00.450Z,71.30
2023-04-16T00:26:28.517Z,71.39
2023-04-16T00:28:56.795Z,71.45
2023-04-16T00:31:32.866Z,71.32
2023-04-16T00:34:01.078Z,71.44
2023-04-16T00:36:29.541Z,71.44
2023-04-16T00:38:57.689Z,71.35
2023-04-16T00:41:26.984Z,71.62
2023-04-16T00:43:55.057Z,71.68
2023-04-16T00:46:25.068Z,71.71
2023-04-16T00:48:54.473Z,71.62
2023-04-16T00:51:22.763Z,71.53
2023-04-16T00:53:51.238Z,71.93
2023-04-16T00:56:20.567Z,72.18
2023-04-16T00:58:49.830Z,72.75
2023-04-16T01:01:18.138Z,72.84
2023-04-16T01:03:48.030Z,72.87
2023-04-16T01:06:17.954Z,72.91
2023-04-16T01:08:47.855Z,72.88
2023-04-16T01:11:16.655Z,72.93
2023-04-16T01:13:44.717Z,72.89
2023-04-16T01:16:13.140Z,72.76
2023-04-16T01:18:41.276Z,72.94
2023-04-16T01:21:09.649Z,72.93
2023-04-16T01:23:38.131Z,72.71
2023-04-16T01:26:06.616Z,72.58
2023-04-16T01:28:34.691Z,72.47
2023-04-16T01:31:02.794Z,72.32
2023-04-16T01:33:44.356Z,72.05
2023-04-16T01:36:13.379Z,71.70
2023-04-16T01:38:41.518Z,71.54
2023-04-16T01:41:09.443Z,71.21
2023-04-16T01:43:40.036Z,71.26
2023-04-16T01:46:29.672Z,71.27
2023-04-16T01:48:58.583Z,71.15
2023-04-16T01:51:28.305Z,70.88
2023-04-16T01:53:58.421Z,70.83
2023-04-16T01:56:26.791Z,71.01
2023-04-16T01:58:54.981Z,70.89
2023-04-16T02:01:24.363Z,70.95
2023-04-16T02:03:53.596Z,71.11
2023-04-16T02:06:21.743Z,71.03
2023-04-16T02:08:50.127Z,71.33
2023-04-16T02:11:18.231Z,71.15
2023-04-16T02:13:47.095Z,71.41
2023-04-16T02:16:15.702Z,71.58
2023-04-16T02:19:13.435Z,71.64
2023-04-16T02:21:42.014Z,71.87
2023-04-16T02:24:10.295Z,72.14
2023-04-16T02:26:38.567Z,72.02
2023-04-16T02:29:09.971Z,72.07
2023-04-16T02:31:42.874Z,72.55
2023-04-16T02:34:11.478Z,72.80
2023-04-16T02:36:39.767Z,72.77
2023-04-16T02:39:08.544Z,72.76
2023-04-16T02:41:37.033Z,72.63
2023-04-16T02:44:05.769Z,73.00
2023-04-16T02:46:33.803Z,73.39
2023-04-16T02:49:01.863Z,73.93
2023-04-16T02:51:30.337Z,74.26
2023-04-16T02:53:58.419Z,74.20
2023-04-16T02:56:26.312Z,74.29
2023-04-16T02:58:54.559Z,74.59
2023-04-16T03:01:22.586Z,74.66
2023-04-16T03:03:50.722Z,74.51
2023-04-16T03:06:18.992Z,74.62
2023-04-16T03:08:46.962Z,73.69
2023-04-16T03:11:15.079Z,73.49
2023-04-16T03:13:43.200Z,73.96
2023-04-16T03:16:11.975Z,74.06
2023-04-16T03:18:40.261Z,73.88
2023-04-16T03:21:08.327Z,73.72
2023-04-16T03:23:36.703Z,73.69
2023-04-16T03:26:06.721Z,73.79
2023-04-16T03:28:35.106Z,73.93
2023-04-16T03:31:03.605Z,74.12
2023-04-16T03:33:31.885Z,74.36
2023-04-16T03:35:59.955Z,74.47
2023-04-16T03:38:30.593Z,74.35
2023-04-16T03:40:59.974Z,74.55
2023-04-16T03:43:28.244Z,74.16
2023-04-16T03:45:56.680Z,74.16
2023-04-16T03:48:24.815Z,74.43
2023-04-16T03:50:54.329Z,74.74
2023-04-16T03:53:22.555Z,74.97
2023-04-16T03:55:51.953Z,75.12
2023-04-16T03:58:21.294Z,74.99
2023-04-16T04:00:49.364Z,74.69
2023-04-16T04:03:18.834Z,74.31
2023-04-16T04:05:48.786Z,74.19
2023-04-16T04:08:20.950Z,74.08
2023-04-16T04:10:49.015Z,74.45
2023-04-16T04:13:17.089Z,73.83
2023-04-16T04:15:45.475Z,73.90
2023-04-16T04:18:13.369Z,73.44
2023-04-16T04:20:41.545Z,72.96
2023-04-16T04:23:09.675Z,72.74
2023-04-16T04:25:37.722Z,72.20
2023-04-16T04:28:05.841Z,71.63
2023-04-16T04:30:35.890Z,71.64
2023-04-16T04:33:04.658Z,71.53
2023-04-16T04:35:33.236Z,71.10
2023-04-16T04:38:03.692Z,71.09
2023-04-16T04:40:32.335Z,71.12
2023-04-16T04:43:00.396Z,71.06
2023-04-16T04:45:31.201Z,71.26
2023-04-16T04:48:00.212Z,70.99
2023-04-16T04:50:28.727Z,71.02
2023-04-16T04:52:56.892Z,71.27
2023-04-16T04:55:25.059Z,71.27
2023-04-16T04:57:53.048Z,71.37
2023-04-16T05:00:22.026Z,71.56
2023-04-16T05:02:55.377Z,71.43
2023-04-16T05:05:23.645Z,71.19
2023-04-16T05:07:51.978Z,71.26
2023-04-16T05:10:20.352Z,71.34
2023-04-16T05:12:49.100Z,71.63
2023-04-16T05:15:17.320Z,71.68
2023-04-16T05:17:45.712Z,71.58
2023-04-16T05:20:13.964Z,71.03
2023-04-16T05:22:42.095Z,71.17
2023-04-16T05:25:10.733Z,70.81
2023-04-16T05:27:38.931Z,70.40
2023-04-16T05:30:07.890Z,70.66
2023-04-16T05:32:37.432Z,70.53
2023-04-16T05:35:06.445Z,70.44
2023-04-16T05:37:34.424Z,70.17
2023-04-16T05:40:02.619Z,70.15
2023-04-16T05:42:30.710Z,69.81
2023-04-16T05:44:58.775Z,69.89
2023-04-16T05:47:26.877Z,69.55
2023-04-16T05:49:54.991Z,69.43
2023-04-16T05:52:22.962Z,69.34
2023-04-16T05:54:51.068Z,69.28
2023-04-16T05:57:19.052Z,68.85
2023-04-16T05:59:47.114Z,68.47
2023-04-16T06:02:15.219Z,68.00
2023-04-16T06:04:44.169Z,67.67
2023-04-16T06:07:12.142Z,66.97
2023-04-16T06:09:40.094Z,66.51
2023-04-16T06:12:08.181Z,66.24
2023-04-16T06:14:36.359Z,66.01
2023-04-16T06:17:04.681Z,64.92
2023-04-16T06:19:32.786Z,64.18
2023-04-16T06:22:01.188Z,63.25
2023-04-16T06:24:29.672Z,62.25
2023-04-16T06:26:58.057Z,61.90
2023-04-16T06:29:33.664Z,62.26
2023-04-16T06:32:08.824Z,61.61
2023-04-16T06:34:38.515Z,61.50
2023-04-16T06:37:09.137Z,60.88
2023-04-16T06:39:38.610Z,59.91
2023-04-16T06:42:06.751Z,59.91
2023-04-16T06:44:35.942Z,60.23
2023-04-16T06:47:04.137Z,60.53
2023-04-16T06:49:32.312Z,60.57
2023-04-16T06:52:00.904Z,60.52
2023-04-16T06:54:28.951Z,60.47
2023-04-16T06:56:57.017Z,60.54
2023-04-16T06:59:25.400Z,60.31
2023-04-16T07:01:53.681Z,60.34
2023-04-16T07:04:22.010Z,60.04
2023-04-16T07:06:50.244Z,60.20
2023-04-16T07:09:18.311Z,60.44
2023-04-16T07:11:47.215Z,60.84
2023-04-16T07:14:15.363Z,60.07
2023-04-16T07:16:43.483Z,59.89
2023-04-16T07:19:12.035Z,58.99
2023-04-16T07:21:42.192Z,57.43
2023-04-16T07:24:13.884Z,58.01
2023-04-16T07:26:41.968Z,59.83
2023-04-16T07:29:10.302Z,59.62
2023-04-16T07:31:38.948Z,59.32
2023-04-16T07:34:07.406Z,57.79
2023-04-16T07:36:35.482Z,57.03
2023-04-16T07:39:06.324Z,56.92
2023-04-16T07:41:34.464Z,56.11
2023-04-16T07:44:02.562Z,55.01
2023-04-16T07:46:39.312Z,53.61
2023-04-16T07:49:13.959Z,54.08
2023-04-16T07:51:42.059Z,54.09
2023-04-16T07:54:11.242Z,52.66
2023-04-16T07:56:39.521Z,52.93
2023-04-16T07:59:21.030Z,53.18
2023-04-16T08:01:54.276Z,52.44
2023-04-16T08:04:26.383Z,51.62
2023-04-16T08:06:54.719Z,50.02
2023-04-16T08:09:24.446Z,50.24
2023-04-16T08:11:52.639Z,50.63
2023-04-16T08:14:21.010Z,51.80
2023-04-16T08:16:49.988Z,50.56
2023-04-16T08:19:18.386Z,50.11
2023-04-16T08:21:47.369Z,49.61
2023-04-16T08:24:15.620Z,50.20
2023-04-16T08:26:43.825Z,49.46
2023-04-16T08:29:12.033Z,48.85
2023-04-16T08:31:41.216Z,48.96
2023-04-16T08:34:11.618Z,48.92
2023-04-16T08:36:41.175Z,48.61
2023-04-16T08:39:09.847Z,48.35
2023-04-16T08:41:42.595Z,48.42
2023-04-16T08:44:33.869Z,49.01
2023-04-16T08:47:02.461Z,48.56
2023-04-16T08:49:35.162Z,47.67
2023-04-16T08:52:06.818Z,46.55
2023-04-16T08:55:00.498Z,46.42
2023-04-16T08:57:36.557Z,45.87
2023-04-16T09:00:06.789Z,44.91
2023-04-16T09:02:35.961Z,43.36
2023-04-16T09:05:07.157Z,42.98
2023-04-16T09:07:35.710Z,41.93
2023-04-16T09:10:06.117Z,41.66
2023-04-16T09:12:35.717Z,41.54
2023-04-16T09:15:05.633Z,41.60
2023-04-16T09:17:34.676Z,42.36
2023-04-16T09:20:06.076Z,42.31
2023-04-16T09:22:35.113Z,41.91
2023-04-16T09:25:03.885Z,41.73
2023-04-16T09:27:32.356Z,41.92
2023-04-16T09:30:00.534Z,42.12
2023-04-16T09:32:29.268Z,42.40
2023-04-16T09:35:02.022Z,41.85
2023-04-16T09:37:31.826Z,41.12
2023-04-16T09:40:06.746Z,41.40
2023-04-16T09:42:37.247Z,40.76
2023-04-16T09:45:06.562Z,40.47
2023-04-16T09:47:46.053Z,40.60
2023-04-16T09:50:19.578Z,40.78
2023-04-16T09:52:51.590Z,41.15
2023-04-16T09:55:28.149Z,40.60
2023-04-16T09:58:01.349Z,39.77
2023-04-16T10:00:31.629Z,39.47
2023-04-16T10:03:07.560Z,39.10
2023-04-16T10:05:37.141Z,39.02
2023-04-16T10:08:12.391Z,39.25
2023-04-16T10:10:40.750Z,39.26
2023-04-16T10:13:10.137Z,38.52
2023-04-16T10:15:39.110Z,38.32
2023-04-16T10:18:07.419Z,38.02
2023-04-16T10:20:36.816Z,38.19
2023-04-16T10:23:05.641Z,38.25
2023-04-16T10:25:34.195Z,38.30
2023-04-16T10:28:03.182Z,37.81
2023-04-16T10:30:31.584Z,37.54
2023-04-16T10:33:00.842Z,37.37
2023-04-16T10:35:30.890Z,37.36
2023-04-16T10:38:23.446Z,37.28
2023-04-16T10:40:59.623Z,37.16
2023-04-16T10:43:30.137Z,37.23
2023-04-16T10:46:17.264Z,37.49
2023-04-16T10:48:50.408Z,37.74
2023-04-16T10:51:36.447Z,36.73
2023-04-16T10:54:19.852Z,37.87
2023-04-16T10:56:48.325Z,37.75
2023-04-16T10:59:20.185Z,37.34
2023-04-16T11:02:01.704Z,37.65
2023-04-16T11:04:34.728Z,37.28
2023-04-16T11:07:14.011Z,37.02
2023-04-16T11:09:54.059Z,37.76
2023-04-16T11:12:31.137Z,37.25
2023-04-16T11:15:05.960Z,38.58
2023-04-16T11:17:38.024Z,39.45
2023-04-16T11:20:18.826Z,39.68
2023-04-16T11:22:53.180Z,39.71
2023-04-16T11:25:26.209Z,39.85
2023-04-16T11:27:54.991Z,39.99
2023-04-16T11:30:31.413Z,39.70
2023-04-16T11:33:02.310Z,39.89
2023-04-16T11:35:30.671Z,40.16
2023-04-16T11:37:59.786Z,40.25
2023-04-16T11:40:31.725Z,40.25
2023-04-16T11:43:05.190Z,40.23
2023-04-16T11:45:33.177Z,40.86
2023-04-16T11:48:01.302Z,42.26
2023-04-16T11:50:29.861Z,42.50
2023-04-16T11:53:04.535Z,42.91
2023-04-16T11:55:32.812Z,43.00
2023-04-16T11:58:12.937Z,43.47
2023-04-16T12:00:41.827Z,43.40
2023-04-16T12:03:10.267Z,43.04
2023-04-16T12:05:40.857Z,43.57
2023-04-16T12:08:11.438Z,43.98
2023-04-16T12:10:56.140Z,44.73
2023-04-16T12:13:24.181Z,45.41
2023-04-16T12:15:56.343Z,45.19
2023-04-16T12:18:29.137Z,44.90
2023-04-16T12:20:57.213Z,45.19
2023-04-16T12:23:27.589Z,45.51
2023-04-16T12:25:59.847Z,46.28
2023-04-16T12:28:30.166Z,46.76
2023-04-16T12:30:58.744Z,47.62
2023-04-16T12:33:27.086Z,47.32
2023-04-16T12:35:55.480Z,48.07
2023-04-16T12:38:24.620Z,48.26
2023-04-16T12:40:56.981Z,47.42
2023-04-16T12:43:26.058Z,47.86
2023-04-16T12:45:54.580Z,47.95
2023-04-16T12:48:22.688Z,48.12
2023-04-16T12:50:53.997Z,48.49
2023-04-16T12:53:21.990Z,49.65
2023-04-16T12:55:50.165Z,51.28
2023-04-16T12:58:18.239Z,50.82
2023-04-16T13:00:46.413Z,50.93
2023-04-16T13:03:14.557Z,51.15
2023-04-16T13:05:42.909Z,51.07
2023-04-16T13:08:11.346Z,51.14
2023-04-16T13:10:39.417Z,50.77
2023-04-16T13:13:07.794Z,50.15
2023-04-16T13:15:35.953Z,49.32
2023-04-16T13:18:04.678Z,49.58
2023-04-16T13:20:33.652Z,49.44
2023-04-16T13:23:01.820Z,48.42
2023-04-16T13:25:31.210Z,47.58
2023-04-16T13:27:59.296Z,47.41
2023-04-16T13:30:29.516Z,47.50
2023-04-16T13:32:57.642Z,47.17
2023-04-16T13:35:26.490Z,47.09
2023-04-16T13:37:54.552Z,47.00
2023-04-16T13:40:22.581Z,47.20
2023-04-16T13:42:51.010Z,45.82
2023-04-16T13:45:20.566Z,45.13
2023-04-16T13:47:48.705Z,44.65
2023-04-16T13:50:16.961Z,43.88
2023-04-16T13:52:45.048Z,43.67
2023-04-16T13:55:14.336Z,41.11
2023-04-16T13:57:42.501Z,40.93
2023-04-16T14:00:13.226Z,40.94
2023-04-16T14:02:43.101Z,41.02
2023-04-16T14:05:11.856Z,41.70
2023-04-16T14:07:39.895Z,41.19
2023-04-16T14:10:09.157Z,40.53
2023-04-16T14:12:38.814Z,41.14
2023-04-16T14:15:09.697Z,41.42
2023-04-16T14:17:38.008Z,41.04
2023-04-16T14:20:07.014Z,40.64
2023-04-16T14:22:35.138Z,41.05
2023-04-16T14:25:03.584Z,41.72
2023-04-16T14:27:31.870Z,40.94
2023-04-16T14:30:00.772Z,41.21
2023-04-16T14:32:28.948Z,41.21
2023-04-16T14:34:57.714Z,40.77
2023-04-16T14:37:26.813Z,41.36
2023-04-16T14:39:55.076Z,41.01
2023-04-16T14:42:23.060Z,41.51
2023-04-16T14:44:52.244Z,41.70
2023-04-16T14:47:20.418Z,41.69
2023-04-16T14:49:48.503Z,41.91
2023-04-16T14:52:17.129Z,41.81
2023-04-16T14:54:45.417Z,41.98
2023-04-16T14:57:14.272Z,42.26
2023-04-16T14:59:42.318Z,42.47
2023-04-16T15:02:11.049Z,43.05
2023-04-16T15:04:39.382Z,43.25
2023-04-16T15:07:07.863Z,43.74
2023-04-16T15:09:36.038Z,44.97
2023-04-16T15:12:04.731Z,44.47
2023-04-16T15:14:32.894Z,44.65
2023-04-16T15:17:01.555Z,44.52
2023-04-16T15:19:29.964Z,44.83
2023-04-16T15:21:58.239Z,44.82
2023-04-16T15:24:26.816Z,44.90
2023-04-16T15:26:54.997Z,45.09
2023-04-16T15:29:23.171Z,45.37
2023-04-16T15:31:51.237Z,45.32
2023-04-16T15:34:19.347Z,45.33
2023-04-16T15:36:47.794Z,45.37
2023-04-16T15:39:16.068Z,45.52
2023-04-16T15:41:59.327Z,45.72
2023-04-16T15:44:29.924Z,45.85
2023-04-16T15:46:58.407Z,46.03
2023-04-16T15:49:26.683Z,46.21
2023-04-16T15:51:56.295Z,46.76
2023-04-16T15:54:24.475Z,46.82
2023-04-16T15:56:52.672Z,47.08
2023-04-16T15:59:20.918Z,47.14
2023-04-16T16:01:49.213Z,47.46
2023-04-16T16:04:17.439Z,47.69
2023-04-16T16:06:45.847Z,47.71
2023-04-16T16:09:14.235Z,47.09
2023-04-16T16:11:42.522Z,47.35
2023-04-16T16:14:11.107Z,48.10
2023-04-16T16:16:39.939Z,48.08
2023-04-16T16:19:08.562Z,48.38
2023-04-16T16:21:37.269Z,48.18
2023-04-16T16:24:05.770Z,48.87
2023-04-16T16:26:34.006Z,49.23
2023-04-16T16:29:02.074Z,49.14
2023-04-16T16:31:30.208Z,49.06
2023-04-16T16:33:58.528Z,48.95
2023-04-16T16:36:27.626Z,49.55
2023-04-16T16:38:55.687Z,49.98
2023-04-16T16:41:23.773Z,49.98
2023-04-16T16:43:55.937Z,49.94
2023-04-16T16:46:24.135Z,49.97
2023-04-16T16:48:52.829Z,50.36
2023-04-16T16:51:21.679Z,50.46
2023-04-16T16:53:49.749Z,50.84
2023-04-16T16:56:17.822Z,51.47
2023-04-16T16:58:46.618Z,51.48
2023-04-16T17:01:14.732Z,52.34
2023-04-16T17:03:43.000Z,52.14
2023-04-16T17:06:11.297Z,52.96
2023-04-16T17:08:39.519Z,53.24
2023-04-16T17:11:07.595Z,53.12
2023-04-16T17:13:35.965Z,53.59
2023-04-16T17:16:04.192Z,53.75
2023-04-16T17:18:32.835Z,53.71
2023-04-16T17:21:01.557Z,54.74
2023-04-16T17:23:29.510Z,54.59
2023-04-16T17:25:59.497Z,54.69
2023-04-16T17:28:27.581Z,54.13
2023-04-16T17:30:56.977Z,54.40
2023-04-16T17:33:25.256Z,55.50
2023-04-16T17:35:53.356Z,56.04
2023-04-16T17:38:21.709Z,56.51
2023-04-16T17:40:49.768Z,55.64
2023-04-16T17:43:18.056Z,56.28
2023-04-16T17:45:46.152Z,57.09
2023-04-16T17:48:14.536Z,56.55
2023-04-16T17:50:42.672Z,56.67
2023-04-16T17:53:11.057Z,57.27
2023-04-16T17:55:39.289Z,57.68
2023-04-16T17:58:07.617Z,59.44
2023-04-16T18:00:35.671Z,59.60
2023-04-16T18:03:04.432Z,60.74
2023-04-16T18:05:32.740Z,61.20
2023-04-16T18:08:01.321Z,61.32
2023-04-16T18:10:31.872Z,60.88
2023-04-16T18:12:59.931Z,60.67
2023-04-16T18:15:28.037Z,59.85
2023-04-16T18:17:56.186Z,60.62
2023-04-16T18:20:24.375Z,61.50
2023-04-16T18:22:52.513Z,62.74
2023-04-16T18:25:29.975Z,64.14
2023-04-16T18:28:03.856Z,64.33
2023-04-16T18:30:32.738Z,64.18
2023-04-16T18:33:33.619Z,64.04
2023-04-16T18:35:50.152Z,64.84
2023-04-16T18:38:18.228Z,64.69
2023-04-16T18:40:47.215Z,64.90
2023-04-16T18:43:16.108Z,65.19
2023-04-16T18:45:44.278Z,65.97
2023-04-16T18:48:12.550Z,66.42
2023-04-16T18:50:40.722Z,67.22
2023-04-16T18:53:08.909Z,68.76
2023-04-16T18:55:37.068Z,70.19
2023-04-16T18:58:05.656Z,70.78
2023-04-16T19:00:33.822Z,71.18
2023-04-16T19:03:07.124Z,71.78
2023-04-16T19:05:35.680Z,71.54
2023-04-16T19:08:03.901Z,71.05
2023-04-16T19:10:31.958Z,72.07
2023-04-16T19:13:00.149Z,73.05
2023-04-16T19:15:31.098Z,73.84
2023-04-16T19:18:00.628Z,73.98
2023-04-16T19:20:28.912Z,74.45
2023-04-16T19:23:00.197Z,74.95
2023-04-16T19:25:28.360Z,75.04
2023-04-16T19:27:56.849Z,74.86
2023-04-16T19:30:25.072Z,74.40
2023-04-16T19:32:55.124Z,74.52
2023-04-16T19:35:23.627Z,74.71
2023-04-16T19:37:51.611Z,74.84
2023-04-16T19:40:19.785Z,75.05
2023-04-16T19:42:47.959Z,75.06
2023-04-16T19:45:16.436Z,75.40
2023-04-16T19:47:44.939Z,75.09
2023-04-16T19:50:13.096Z,75.10
2023-04-16T19:52:41.469Z,74.80
2023-04-16T19:55:10.249Z,74.82
2023-04-16T19:57:38.247Z,74.93
2023-04-16T20:00:11.973Z,75.08
2023-04-16T20:02:40.889Z,75.55
2023-04-16T20:05:09.803Z,75.91
2023-04-16T20:07:37.885Z,75.84
2023-04-16T20:10:06.413Z,75.80
2023-04-16T20:12:34.530Z,75.84
2023-04-16T20:15:02.608Z,76.83
2023-04-16T20:17:30.822Z,77.24
2023-04-16T20:20:01.164Z,76.65
2023-04-16T20:22:29.381Z,76.27
2023-04-16T20:24:58.179Z,76.99
2023-04-16T20:27:26.447Z,77.35
2023-04-16T20:29:54.614Z,77.33
2023-04-16T20:32:23.537Z,77.37
2023-04-16T20:34:52.876Z,77.61
2023-04-16T20:37:21.086Z,77.97
2023-04-16T20:39:54.307Z,78.28
2023-04-16T20:42:23.038Z,77.67
2023-04-16T20:44:55.865Z,77.54
2023-04-16T20:47:24.068Z,78.01
2023-04-16T20:49:54.988Z,77.86
2023-04-16T20:52:23.033Z,78.25
2023-04-16T20:54:52.558Z,78.36
2023-04-16T20:57:20.606Z,78.38
2023-04-16T20:59:49.606Z,78.72
2023-04-16T21:02:17.889Z,78.95
2023-04-16T21:04:46.781Z,79.09
2023-04-16T21:07:15.788Z,79.82
2023-04-16T21:09:44.048Z,79.89
2023-04-16T21:12:12.120Z,80.40
2023-04-16T21:14:40.489Z,80.49
2023-04-16T21:17:08.515Z,80.92
2023-04-16T21:19:36.528Z,80.64
2023-04-16T21:22:04.917Z,81.02
2023-04-16T21:24:32.894Z,80.81
2023-04-16T21:27:01.860Z,81.19
2023-04-16T21:29:30.457Z,80.71
2023-04-16T21:31:58.592Z,80.42
2023-04-16T21:34:26.626Z,80.64
2023-04-16T21:36:54.675Z,81.28
2023-04-16T21:39:22.948Z,81.04
2023-04-16T21:41:51.128Z,80.69
2023-04-16T21:44:19.201Z,80.38
2023-04-16T21:46:47.315Z,79.88
2023-04-16T21:49:15.539Z,79.91
2023-04-16T21:51:46.274Z,79.75
2023-04-16T21:54:18.002Z,79.32
2023-04-16T21:56:46.410Z,79.35
2023-04-16T21:59:14.591Z,79.42
2023-04-16T22:01:42.796Z,79.43
2023-04-16T22:04:12.406Z,79.43
2023-04-16T22:06:40.849Z,79.30
2023-04-16T22:09:09.805Z,79.57
2023-04-16T22:11:38.432Z,79.39
2023-04-16T22:14:08.360Z,79.23
2023-04-16T22:16:36.601Z,79.15
2023-04-16T22:19:04.898Z,79.26
2023-04-16T22:21:32.966Z,79.29
2023-04-16T22:24:01.141Z,79.09
2023-04-16T22:26:29.256Z,79.23
2023-04-16T22:28:57.280Z,79.69
2023-04-16T22:31:25.379Z,79.78
2023-04-16T22:33:53.636Z,79.52
2023-04-16T22:36:22.123Z,79.71
2023-04-16T22:38:50.498Z,79.95
2023-04-16T22:41:18.583Z,79.99
2023-04-16T22:43:46.764Z,80.09
2023-04-16T22:46:15.207Z,80.26
2023-04-16T22:48:43.389Z,80.67
2023-04-16T22:51:11.669Z,80.49
2023-04-16T22:53:39.611Z,80.88
2023-04-16T22:56:07.836Z,80.94
2023-04-16T22:58:36.184Z,81.33
2023-04-16T23:01:04.310Z,81.59
2023-04-16T23:03:32.524Z,81.31
2023-04-16T23:06:00.807Z,81.37
2023-04-16T23:08:28.806Z,81.15
2023-04-16T23:10:56.956Z,81.24
2023-04-16T23:13:25.030Z,81.45
2023-04-16T23:15:53.163Z,81.88
2023-04-16T23:18:21.273Z,81.89
2023-04-16T23:20:53.140Z,81.45
2023-04-16T23:23:21.413Z,81.61
2023-04-16T23:25:53.287Z,82.33
2023-04-16T23:28:22.368Z,82.38
2023-04-16T23:30:53.574Z,82.09
2023-04-16T23:33:21.895Z,82.16
2023-04-16T23:35:49.860Z,82.06
2023-04-16T23:38:17.934Z,81.80
2023-04-16T23:40:46.100Z,81.82
2023-04-16T23:43:14.174Z,81.61
2023-04-16T23:45:42.208Z,81.37
2023-04-16T23:48:10.645Z,80.96
2023-04-16T23:50:38.705Z,81.08
2023-04-16T23:53:06.769Z,80.89
2023-04-16T23:55:34.846Z,81.24
2023-04-16T23:58:03.137Z,81.31
